createdAt,value
2022-09-20T00:01:46.573Z,65.57
2022-09-20T00:06:49.380Z,65.63
2022-09-20T00:11:53.448Z,65.94
2022-09-20T00:16:56.221Z,65.70
2022-09-20T00:21:59.061Z,65.70
2022-09-20T00:27:03.160Z,65.33
2022-09-20T00:32:06.120Z,65.17
2022-09-20T00:37:08.888Z,65.29
2022-09-20T00:42:15.085Z,64.87
2022-09-20T00:47:23.782Z,64.98
2022-09-20T00:52:27.811Z,65.05
2022-09-20T00:57:35.261Z,64.91
2022-09-20T01:02:40.665Z,64.89
2022-09-20T01:07:44.187Z,64.72
2022-09-20T01:12:48.771Z,64.32
2022-09-20T01:17:53.755Z,64.40
2022-09-20T01:23:20.603Z,64.35
2022-09-20T01:28:24.977Z,64.54
2022-09-20T01:33:31.835Z,64.22
2022-09-20T01:38:39.896Z,64.19
2022-09-20T01:43:48.149Z,64.23
2022-09-20T01:48:52.357Z,64.07
2022-09-20T01:54:28.069Z,64.18
2022-09-20T02:05:14.617Z,63.93
2022-09-20T02:10:33.183Z,63.80
2022-09-20T02:16:05.803Z,64.00
2022-09-20T02:21:17.051Z,63.83
2022-09-20T02:26:29.213Z,63.80
2022-09-20T02:31:45.695Z,63.89
2022-09-20T02:36:59.399Z,64.26
2022-09-20T02:42:05.480Z,64.21
2022-09-20T02:47:13.908Z,64.08
2022-09-20T02:52:24.913Z,63.94
2022-09-20T02:57:37.772Z,64.16
2022-09-20T03:02:51.275Z,64.23
2022-09-20T03:08:12.607Z,64.24
2022-09-20T03:13:20.978Z,64.33
2022-09-20T03:18:34.329Z,64.56
2022-09-20T03:23:48.353Z,64.78
2022-09-20T03:28:57.205Z,64.55
2022-09-20T03:34:07.452Z,64.58
2022-09-20T03:39:28.130Z,64.77
2022-09-20T03:44:55.959Z,64.44
2022-09-20T03:50:09.067Z,64.39
2022-09-20T03:55:39.918Z,64.73
2022-09-20T04:00:53.762Z,64.30
2022-09-20T04:06:05.874Z,64.60
2022-09-20T04:11:17.927Z,64.57
2022-09-20T04:16:28.430Z,64.15
2022-09-20T04:21:35.518Z,64.30
2022-09-20T04:26:42.729Z,64.28
2022-09-20T04:31:53.974Z,64.46
2022-09-20T04:36:59.162Z,64.24
2022-09-20T04:42:35.520Z,64.45
2022-09-20T04:48:04.311Z,64.00
2022-09-20T04:53:24.247Z,64.29
2022-09-20T04:58:46.907Z,64.22
2022-09-20T05:04:11.197Z,64.24
2022-09-20T05:09:42.104Z,64.37
2022-09-20T05:15:02.963Z,64.30
2022-09-20T05:20:27.928Z,64.34
2022-09-20T05:25:48.601Z,64.03
2022-09-20T05:30:56.314Z,64.04
2022-09-20T05:36:06.196Z,64.00
2022-09-20T05:41:14.375Z,63.91
2022-09-20T05:46:26.654Z,64.22
2022-09-20T05:51:37.537Z,63.88
2022-09-20T05:56:47.353Z,64.08
2022-09-20T06:02:00.295Z,63.84
2022-09-20T06:07:09.132Z,63.64
2022-09-20T06:12:26.229Z,63.54
2022-09-20T06:17:35.966Z,63.78
2022-09-20T06:22:42.022Z,63.65
2022-09-20T06:27:47.150Z,63.48
2022-09-20T06:32:59.515Z,63.55
2022-09-20T06:38:31.472Z,63.51
2022-09-20T06:43:34.201Z,63.44
2022-09-20T06:48:39.885Z,63.43
2022-09-20T06:53:43.247Z,63.26
2022-09-20T06:58:46.043Z,63.18
2022-09-20T07:03:50.204Z,62.89
2022-09-20T07:08:53.135Z,62.63
2022-09-20T07:13:58.191Z,62.50
2022-09-20T07:19:02.332Z,62.30
2022-09-20T07:24:05.234Z,62.04
2022-09-20T07:29:08.418Z,61.64
2022-09-20T07:34:12.905Z,61.56
2022-09-20T07:39:15.759Z,59.96
2022-09-20T07:44:24.166Z,58.98
2022-09-20T07:49:30.104Z,58.45
2022-09-20T07:54:32.870Z,58.72
2022-09-20T07:59:35.612Z,58.30
2022-09-20T08:04:39.733Z,57.84
2022-09-20T08:09:42.445Z,58.45
2022-09-20T08:14:45.143Z,57.90
2022-09-20T08:19:50.589Z,57.60
2022-09-20T08:24:53.333Z,57.70
2022-09-20T08:29:57.465Z,57.86
2022-09-20T08:35:01.541Z,57.86
2022-09-20T08:40:05.232Z,58.43
2022-09-20T08:45:21.900Z,58.17
2022-09-20T08:50:26.811Z,57.95
2022-09-20T08:55:36.377Z,58.08
2022-09-20T09:00:40.522Z,57.84
2022-09-20T09:05:46.695Z,57.85
2022-09-20T09:10:52.572Z,58.33
2022-09-20T09:15:58.344Z,58.47
2022-09-20T09:21:04.930Z,58.47
2022-09-20T09:26:16.427Z,58.53
2022-09-20T09:31:25.743Z,58.56
2022-09-20T09:36:30.023Z,58.44
2022-09-20T09:41:35.697Z,58.61
2022-09-20T09:46:40.404Z,58.20
2022-09-20T09:52:01.734Z,58.35
2022-09-20T09:57:28.724Z,58.42
2022-09-20T10:02:48.051Z,58.56
2022-09-20T10:08:00.208Z,58.58
2022-09-20T10:13:10.585Z,58.58
2022-09-20T10:18:27.031Z,58.54
2022-09-20T10:24:02.616Z,58.35
2022-09-20T10:29:11.739Z,58.37
2022-09-20T10:34:50.006Z,58.24
2022-09-20T10:40:00.406Z,58.39
2022-09-20T10:45:11.003Z,58.51
2022-09-20T10:50:21.652Z,58.19
2022-09-20T10:55:34.796Z,58.37
2022-09-20T11:00:43.482Z,58.30
2022-09-20T11:05:57.615Z,58.58
2022-09-20T11:11:07.315Z,58.32
2022-09-20T11:16:15.594Z,58.29
2022-09-20T11:21:22.547Z,58.38
2022-09-20T11:26:32.043Z,58.32
2022-09-20T11:31:39.367Z,58.62
2022-09-20T11:36:45.251Z,58.61
2022-09-20T11:41:50.840Z,58.34
2022-09-20T11:46:56.190Z,58.23
2022-09-20T11:52:12.284Z,58.35
2022-09-20T11:57:16.817Z,58.35
2022-09-20T12:02:23.753Z,58.21
2022-09-20T12:07:28.669Z,58.27
2022-09-20T12:12:39.106Z,58.18
2022-09-20T12:18:32.877Z,58.23
2022-09-20T12:24:17.503Z,58.52
2022-09-20T12:29:57.280Z,58.53
2022-09-20T12:35:02.961Z,58.61
2022-09-20T12:40:15.394Z,59.19
2022-09-20T12:45:18.829Z,59.39
2022-09-20T12:50:41.462Z,58.90
2022-09-20T12:55:50.048Z,59.14
2022-09-20T13:01:33.697Z,59.05
2022-09-20T13:06:37.065Z,59.15
2022-09-20T13:11:42.146Z,59.09
2022-09-20T13:16:52.910Z,58.89
2022-09-20T13:21:58.690Z,58.76
2022-09-20T13:27:03.440Z,58.81
2022-09-20T13:32:24.203Z,58.93
2022-09-20T13:37:26.974Z,58.86
2022-09-20T13:42:31.751Z,58.81
2022-09-20T13:47:42.174Z,58.67
2022-09-20T13:52:47.133Z,58.67
2022-09-20T13:57:49.845Z,58.75
2022-09-20T14:02:55.298Z,58.52
2022-09-20T14:07:58.640Z,58.65
2022-09-20T14:13:02.941Z,58.72
2022-09-20T14:18:08.634Z,58.66
2022-09-20T14:23:22.545Z,58.69
2022-09-20T14:28:28.857Z,58.77
2022-09-20T14:33:33.217Z,58.64
2022-09-20T14:38:35.954Z,58.46
2022-09-20T14:43:38.856Z,58.22
2022-09-20T14:48:42.920Z,58.28
2022-09-20T14:53:46.789Z,58.38
2022-09-20T14:59:07.957Z,58.47
2022-09-20T15:04:20.910Z,58.37
2022-09-20T15:09:23.810Z,58.53
2022-09-20T15:14:26.508Z,58.42
2022-09-20T15:19:30.673Z,58.26
2022-09-20T15:24:33.441Z,58.50
2022-09-20T15:29:36.108Z,58.50
2022-09-20T15:34:40.186Z,58.30
2022-09-20T15:39:42.962Z,58.48
2022-09-20T15:44:45.724Z,58.95
2022-09-20T15:49:51.196Z,58.87
2022-09-20T15:54:53.935Z,58.98
2022-09-20T15:59:57.830Z,59.15
2022-09-20T16:05:02.002Z,59.08
2022-09-20T16:10:05.109Z,59.33
2022-09-20T16:15:09.341Z,59.65
2022-09-20T16:20:13.471Z,59.51
2022-09-20T16:25:16.359Z,59.67
2022-09-20T16:30:19.716Z,60.00
2022-09-20T16:35:23.861Z,59.94
2022-09-20T16:40:26.723Z,60.18
2022-09-20T16:45:29.662Z,60.41
2022-09-20T16:50:33.895Z,60.39
2022-09-20T16:55:36.586Z,60.32
2022-09-20T17:00:39.380Z,60.25
2022-09-20T17:05:43.466Z,60.44
2022-09-20T17:10:46.254Z,60.58
2022-09-20T17:15:49.890Z,60.88
2022-09-20T17:20:53.945Z,61.13
2022-09-20T17:26:06.192Z,61.23
2022-09-20T17:31:09.658Z,61.41
2022-09-20T17:36:16.377Z,61.35
2022-09-20T17:41:20.521Z,61.79
2022-09-20T17:46:25.804Z,61.80
2022-09-20T17:51:31.657Z,62.08
2022-09-20T17:56:35.699Z,61.89
2022-09-20T18:01:38.820Z,62.03
2022-09-20T18:06:46.688Z,61.95
2022-09-20T18:11:51.104Z,62.23
2022-09-20T18:16:54.978Z,62.24
2022-09-20T18:21:59.131Z,62.64
2022-09-20T18:27:02.189Z,62.38
2022-09-20T18:32:05.443Z,62.64
2022-09-20T18:37:14.547Z,62.63
2022-09-20T18:42:17.621Z,62.46
2022-09-20T18:47:20.464Z,62.50
2022-09-20T18:52:24.880Z,62.53
2022-09-20T18:57:28.186Z,62.58
2022-09-20T19:02:54.720Z,62.87
2022-09-20T19:08:19.879Z,62.55
2022-09-20T19:13:29.374Z,62.48
2022-09-20T19:18:58.797Z,62.72
2022-09-20T19:24:14.379Z,62.82
2022-09-20T19:29:20.394Z,62.66
2022-09-20T19:34:24.734Z,63.03
2022-09-20T19:39:38.194Z,63.33
2022-09-20T19:44:44.414Z,63.35
2022-09-20T19:49:52.933Z,63.55
2022-09-20T19:54:57.849Z,63.84
2022-09-20T20:00:01.135Z,63.93
2022-09-20T20:05:04.864Z,63.79
2022-09-20T20:10:16.586Z,64.01
2022-09-20T20:15:25.756Z,63.98
2022-09-20T20:20:34.116Z,64.20
2022-09-20T20:25:43.685Z,64.14
2022-09-20T20:30:46.417Z,64.26
2022-09-20T20:35:54.259Z,64.04
2022-09-20T20:41:05.090Z,64.09
2022-09-20T20:46:09.463Z,64.14
2022-09-20T20:51:13.419Z,63.98
2022-09-20T20:56:19.155Z,64.18
2022-09-20T21:01:23.465Z,63.84
2022-09-20T21:06:27.842Z,63.84
2022-09-20T21:11:33.515Z,63.95
2022-09-20T21:16:38.488Z,63.75
2022-09-20T21:21:42.683Z,63.73
2022-09-20T21:26:47.541Z,63.93
2022-09-20T21:31:50.335Z,63.76
2022-09-20T21:36:53.473Z,63.75
2022-09-20T21:41:57.584Z,63.82
2022-09-20T21:47:00.292Z,63.75
2022-09-20T21:52:03.548Z,64.11
2022-09-20T21:57:07.928Z,63.77
2022-09-20T22:02:10.763Z,63.85
2022-09-20T22:07:13.593Z,63.73
2022-09-20T22:12:17.696Z,64.10
2022-09-20T22:17:20.368Z,64.10
2022-09-20T22:22:23.219Z,64.56
2022-09-20T22:27:27.282Z,64.30
2022-09-20T22:32:30.872Z,64.97
2022-09-20T22:37:33.615Z,65.08
2022-09-20T22:42:37.749Z,64.80
2022-09-20T22:47:40.538Z,65.31
2022-09-20T22:52:43.266Z,65.64
2022-09-20T22:57:52.858Z,65.39
2022-09-20T23:02:57.317Z,65.07
2022-09-20T23:08:00.082Z,64.89
2022-09-20T23:13:04.243Z,64.98
2022-09-20T23:18:07.359Z,66.00
2022-09-20T23:23:10.057Z,66.04
2022-09-20T23:28:14.179Z,66.38
2022-09-20T23:33:16.880Z,66.40
2022-09-20T23:38:19.595Z,66.26
2022-09-20T23:43:23.737Z,66.50
2022-09-20T23:48:26.630Z,66.60
2022-09-20T23:53:29.400Z,66.72
2022-09-20T23:58:33.581Z,66.80
